sensor_id;sensor_type;location;lat;lon;timestamp;temperature;humidity
21508;DHT22;10915;54.352;9.074;2023-11-19T00:00:06;6.00;99.90
21508;DHT22;10915;54.352;9.074;2023-11-19T00:02:36;6.00;99.90
21508;DHT22;10915;54.352;9.074;2023-11-19T00:05:02;6.00;99.90
21508;DHT22;10915;54.352;9.074;2023-11-19T00:07:27;6.00;99.90
21508;DHT22;10915;54.352;9.074;2023-11-19T00:09:53;6.00;99.90
21508;DHT22;10915;54.352;9.074;2023-11-19T00:12:20;6.00;99.90
21508;DHT22;10915;54.352;9.074;2023-11-19T00:14:46;6.00;99.90
21508;DHT22;10915;54.352;9.074;2023-11-19T00:17:11;6.00;99.90
21508;DHT22;10915;54.352;9.074;2023-11-19T00:19:37;6.00;99.90
21508;DHT22;10915;54.352;9.074;2023-11-19T00:22:03;6.00;99.90
21508;DHT22;10915;54.352;9.074;2023-11-19T00:24:29;6.00;99.90
21508;DHT22;10915;54.352;9.074;2023-11-19T00:26:56;6.00;99.90
21508;DHT22;10915;54.352;9.074;2023-11-19T00:29:22;6.00;99.90
21508;DHT22;10915;54.352;9.074;2023-11-19T00:31:47;6.00;99.90
21508;DHT22;10915;54.352;9.074;2023-11-19T00:34:13;6.10;99.90
21508;DHT22;10915;54.352;9.074;2023-11-19T00:36:39;6.10;99.90
21508;DHT22;10915;54.352;9.074;2023-11-19T00:39:04;6.10;99.90
21508;DHT22;10915;54.352;9.074;2023-11-19T00:41:31;6.10;99.90
21508;DHT22;10915;54.352;9.074;2023-11-19T00:43:56;6.00;99.90
21508;DHT22;10915;54.352;9.074;2023-11-19T00:46:22;6.00;99.90
21508;DHT22;10915;54.352;9.074;2023-11-19T00:48:47;6.10;99.90
21508;DHT22;10915;54.352;9.074;2023-11-19T00:51:13;6.10;99.90
21508;DHT22;10915;54.352;9.074;2023-11-19T00:53:39;6.10;99.90
21508;DHT22;10915;54.352;9.074;2023-11-19T00:56:05;6.00;99.90
21508;DHT22;10915;54.352;9.074;2023-11-19T00:58:31;6.10;99.90
21508;DHT22;10915;54.352;9.074;2023-11-19T01:00:57;6.10;99.90
21508;DHT22;10915;54.352;9.074;2023-11-19T01:03:23;6.10;99.90
21508;DHT22;10915;54.352;9.074;2023-11-19T01:05:48;6.10;99.90
21508;DHT22;10915;54.352;9.074;2023-11-19T01:08:14;6.10;99.90
21508;DHT22;10915;54.352;9.074;2023-11-19T01:10:41;6.10;99.90
21508;DHT22;10915;54.352;9.074;2023-11-19T01:13:06;6.20;99.90
21508;DHT22;10915;54.352;9.074;2023-11-19T01:15:32;6.10;99.90
21508;DHT22;10915;54.352;9.074;2023-11-19T01:17:58;6.10;99.90
21508;DHT22;10915;54.352;9.074;2023-11-19T01:20:24;6.10;99.90
21508;DHT22;10915;54.352;9.074;2023-11-19T01:22:50;6.10;99.90
21508;DHT22;10915;54.352;9.074;2023-11-19T01:25:15;6.10;99.90
21508;DHT22;10915;54.352;9.074;2023-11-19T01:27:41;6.10;99.90
21508;DHT22;10915;54.352;9.074;2023-11-19T01:30:07;6.10;99.90
21508;DHT22;10915;54.352;9.074;2023-11-19T01:32:35;6.10;99.90
21508;DHT22;10915;54.352;9.074;2023-11-19T01:35:02;6.10;99.90
21508;DHT22;10915;54.352;9.074;2023-11-19T01:37:29;6.10;99.90
21508;DHT22;10915;54.352;9.074;2023-11-19T01:39:55;6.10;99.90
21508;DHT22;10915;54.352;9.074;2023-11-19T01:42:20;6.10;99.90
21508;DHT22;10915;54.352;9.074;2023-11-19T01:44:58;6.00;99.90
21508;DHT22;10915;54.352;9.074;2023-11-19T01:47:25;6.10;99.90
21508;DHT22;10915;54.352;9.074;2023-11-19T01:49:51;6.10;99.90
21508;DHT22;10915;54.352;9.074;2023-11-19T01:52:17;6.00;99.90
21508;DHT22;10915;54.352;9.074;2023-11-19T01:54:43;6.10;99.90
21508;DHT22;10915;54.352;9.074;2023-11-19T01:57:09;6.10;99.90
21508;DHT22;10915;54.352;9.074;2023-11-19T01:59:34;6.10;99.90
21508;DHT22;10915;54.352;9.074;2023-11-19T02:02:00;6.10;99.90
21508;DHT22;10915;54.352;9.074;2023-11-19T02:04:26;6.10;99.90
21508;DHT22;10915;54.352;9.074;2023-11-19T02:06:54;6.10;99.90
21508;DHT22;10915;54.352;9.074;2023-11-19T02:09:21;6.10;99.90
21508;DHT22;10915;54.352;9.074;2023-11-19T02:11:47;6.20;99.90
21508;DHT22;10915;54.352;9.074;2023-11-19T02:14:17;6.20;99.90
21508;DHT22;10915;54.352;9.074;2023-11-19T02:16:43;6.10;99.90
21508;DHT22;10915;54.352;9.074;2023-11-19T02:19:09;6.10;99.90
21508;DHT22;10915;54.352;9.074;2023-11-19T02:21:36;6.20;99.90
21508;DHT22;10915;54.352;9.074;2023-11-19T02:24:07;6.20;99.90
21508;DHT22;10915;54.352;9.074;2023-11-19T02:27:07;6.20;99.90
21508;DHT22;10915;54.352;9.074;2023-11-19T02:29:33;6.20;99.90
21508;DHT22;10915;54.352;9.074;2023-11-19T02:32:00;6.30;99.90
21508;DHT22;10915;54.352;9.074;2023-11-19T02:34:29;6.30;99.90
21508;DHT22;10915;54.352;9.074;2023-11-19T02:36:54;6.30;99.90
21508;DHT22;10915;54.352;9.074;2023-11-19T02:39:20;6.30;99.90
21508;DHT22;10915;54.352;9.074;2023-11-19T02:41:47;6.30;99.90
21508;DHT22;10915;54.352;9.074;2023-11-19T02:44:16;6.30;99.90
21508;DHT22;10915;54.352;9.074;2023-11-19T02:46:42;6.30;99.90
21508;DHT22;10915;54.352;9.074;2023-11-19T02:49:07;6.30;99.90
21508;DHT22;10915;54.352;9.074;2023-11-19T02:51:33;6.30;99.90
21508;DHT22;10915;54.352;9.074;2023-11-19T02:54:00;6.30;99.90
21508;DHT22;10915;54.352;9.074;2023-11-19T02:56:26;6.40;99.90
21508;DHT22;10915;54.352;9.074;2023-11-19T02:58:52;6.40;99.90
21508;DHT22;10915;54.352;9.074;2023-11-19T03:01:24;6.30;99.90
21508;DHT22;10915;54.352;9.074;2023-11-19T03:03:56;6.40;99.90
21508;DHT22;10915;54.352;9.074;2023-11-19T03:06:23;6.40;99.90
21508;DHT22;10915;54.352;9.074;2023-11-19T03:08:48;6.40;99.90
21508;DHT22;10915;54.352;9.074;2023-11-19T03:11:14;6.50;99.90
21508;DHT22;10915;54.352;9.074;2023-11-19T03:13:40;6.50;99.90
21508;DHT22;10915;54.352;9.074;2023-11-19T03:16:06;6.50;99.90
21508;DHT22;10915;54.352;9.074;2023-11-19T03:18:32;6.50;99.90
21508;DHT22;10915;54.352;9.074;2023-11-19T03:20:58;6.50;99.90
21508;DHT22;10915;54.352;9.074;2023-11-19T03:23:24;6.50;99.90
21508;DHT22;10915;54.352;9.074;2023-11-19T03:25:53;6.50;99.90
21508;DHT22;10915;54.352;9.074;2023-11-19T03:28:19;6.40;99.90
21508;DHT22;10915;54.352;9.074;2023-11-19T03:30:45;6.40;99.90
21508;DHT22;10915;54.352;9.074;2023-11-19T03:33:10;6.50;99.90
21508;DHT22;10915;54.352;9.074;2023-11-19T03:35:36;6.50;99.90
21508;DHT22;10915;54.352;9.074;2023-11-19T03:38:01;6.50;99.90
21508;DHT22;10915;54.352;9.074;2023-11-19T03:40:28;6.60;99.90
21508;DHT22;10915;54.352;9.074;2023-11-19T03:42:56;6.50;99.90
21508;DHT22;10915;54.352;9.074;2023-11-19T03:45:22;6.50;99.90
21508;DHT22;10915;54.352;9.074;2023-11-19T03:47:47;6.50;99.90
21508;DHT22;10915;54.352;9.074;2023-11-19T03:50:15;6.50;99.90
21508;DHT22;10915;54.352;9.074;2023-11-19T03:52:41;6.60;99.90
21508;DHT22;10915;54.352;9.074;2023-11-19T03:55:07;6.60;99.90
21508;DHT22;10915;54.352;9.074;2023-11-19T03:57:34;6.60;99.90
21508;DHT22;10915;54.352;9.074;2023-11-19T04:00:00;6.70;99.90
21508;DHT22;10915;54.352;9.074;2023-11-19T04:02:27;6.60;99.90
21508;DHT22;10915;54.352;9.074;2023-11-19T04:04:53;6.70;99.90
21508;DHT22;10915;54.352;9.074;2023-11-19T04:07:20;6.70;99.90
21508;DHT22;10915;54.352;9.074;2023-11-19T04:09:45;6.70;99.90
21508;DHT22;10915;54.352;9.074;2023-11-19T04:12:12;6.70;99.90
21508;DHT22;10915;54.352;9.074;2023-11-19T04:14:37;6.60;99.90
21508;DHT22;10915;54.352;9.074;2023-11-19T04:17:03;6.60;99.90
21508;DHT22;10915;54.352;9.074;2023-11-19T04:19:29;6.70;99.90
21508;DHT22;10915;54.352;9.074;2023-11-19T04:21:54;6.70;99.90
21508;DHT22;10915;54.352;9.074;2023-11-19T04:24:20;6.80;99.90
21508;DHT22;10915;54.352;9.074;2023-11-19T04:26:46;6.80;99.90
21508;DHT22;10915;54.352;9.074;2023-11-19T04:29:16;6.80;99.90
21508;DHT22;10915;54.352;9.074;2023-11-19T04:31:43;6.80;99.90
21508;DHT22;10915;54.352;9.074;2023-11-19T04:34:09;6.80;99.90
21508;DHT22;10915;54.352;9.074;2023-11-19T04:36:36;6.90;99.90
21508;DHT22;10915;54.352;9.074;2023-11-19T04:39:03;7.00;99.90
21508;DHT22;10915;54.352;9.074;2023-11-19T04:41:32;7.10;99.90
21508;DHT22;10915;54.352;9.074;2023-11-19T04:43:58;7.10;99.90
21508;DHT22;10915;54.352;9.074;2023-11-19T04:46:23;7.10;99.90
21508;DHT22;10915;54.352;9.074;2023-11-19T04:48:49;7.10;99.90
21508;DHT22;10915;54.352;9.074;2023-11-19T04:51:15;7.10;99.90
21508;DHT22;10915;54.352;9.074;2023-11-19T04:53:42;7.10;99.90
21508;DHT22;10915;54.352;9.074;2023-11-19T04:56:08;7.10;99.90
21508;DHT22;10915;54.352;9.074;2023-11-19T04:58:34;7.20;99.90
21508;DHT22;10915;54.352;9.074;2023-11-19T05:01:03;7.20;99.90
21508;DHT22;10915;54.352;9.074;2023-11-19T05:03:29;7.10;99.90
21508;DHT22;10915;54.352;9.074;2023-11-19T05:05:54;7.10;99.90
21508;DHT22;10915;54.352;9.074;2023-11-19T05:08:20;7.10;99.90
21508;DHT22;10915;54.352;9.074;2023-11-19T05:10:45;7.10;99.90
21508;DHT22;10915;54.352;9.074;2023-11-19T05:13:11;7.20;99.90
21508;DHT22;10915;54.352;9.074;2023-11-19T05:15:38;7.00;99.90
21508;DHT22;10915;54.352;9.074;2023-11-19T05:18:03;7.00;99.90
21508;DHT22;10915;54.352;9.074;2023-11-19T05:20:30;7.10;99.90
21508;DHT22;10915;54.352;9.074;2023-11-19T05:22:55;7.10;99.90
21508;DHT22;10915;54.352;9.074;2023-11-19T05:25:21;7.20;99.90
21508;DHT22;10915;54.352;9.074;2023-11-19T05:27:47;7.20;99.90
21508;DHT22;10915;54.352;9.074;2023-11-19T05:30:12;7.30;99.90
21508;DHT22;10915;54.352;9.074;2023-11-19T05:32:38;7.40;99.90
21508;DHT22;10915;54.352;9.074;2023-11-19T05:35:04;7.50;99.90
21508;DHT22;10915;54.352;9.074;2023-11-19T05:37:30;7.60;99.90
21508;DHT22;10915;54.352;9.074;2023-11-19T05:39:55;7.70;99.90
21508;DHT22;10915;54.352;9.074;2023-11-19T05:42:21;7.90;99.90
21508;DHT22;10915;54.352;9.074;2023-11-19T05:44:46;8.00;99.90
21508;DHT22;10915;54.352;9.074;2023-11-19T05:47:12;8.30;99.90
21508;DHT22;10915;54.352;9.074;2023-11-19T05:49:38;8.50;99.90
21508;DHT22;10915;54.352;9.074;2023-11-19T05:52:04;8.80;99.90
21508;DHT22;10915;54.352;9.074;2023-11-19T05:54:32;9.10;99.90
21508;DHT22;10915;54.352;9.074;2023-11-19T05:57:05;9.30;99.90
21508;DHT22;10915;54.352;9.074;2023-11-19T05:59:34;9.50;99.90
21508;DHT22;10915;54.352;9.074;2023-11-19T06:02:02;9.70;99.90
21508;DHT22;10915;54.352;9.074;2023-11-19T06:04:27;9.80;99.90
21508;DHT22;10915;54.352;9.074;2023-11-19T06:06:53;9.80;99.90
21508;DHT22;10915;54.352;9.074;2023-11-19T06:09:20;9.90;99.90
21508;DHT22;10915;54.352;9.074;2023-11-19T06:11:46;10.00;99.90
21508;DHT22;10915;54.352;9.074;2023-11-19T06:14:12;10.00;99.90
21508;DHT22;10915;54.352;9.074;2023-11-19T06:16:38;10.00;99.90
21508;DHT22;10915;54.352;9.074;2023-11-19T06:19:05;10.10;99.90
21508;DHT22;10915;54.352;9.074;2023-11-19T06:21:30;10.20;99.90
21508;DHT22;10915;54.352;9.074;2023-11-19T06:23:56;10.20;99.90
21508;DHT22;10915;54.352;9.074;2023-11-19T06:26:22;10.30;99.90
21508;DHT22;10915;54.352;9.074;2023-11-19T06:28:48;10.30;99.90
21508;DHT22;10915;54.352;9.074;2023-11-19T06:31:13;10.40;99.90
21508;DHT22;10915;54.352;9.074;2023-11-19T06:33:42;10.40;99.90
21508;DHT22;10915;54.352;9.074;2023-11-19T06:36:08;10.40;99.90
21508;DHT22;10915;54.352;9.074;2023-11-19T06:38:35;10.40;99.90
21508;DHT22;10915;54.352;9.074;2023-11-19T06:41:00;10.50;99.90
21508;DHT22;10915;54.352;9.074;2023-11-19T06:43:26;10.50;99.90
21508;DHT22;10915;54.352;9.074;2023-11-19T06:45:53;10.50;99.90
21508;DHT22;10915;54.352;9.074;2023-11-19T06:48:19;10.50;99.90
21508;DHT22;10915;54.352;9.074;2023-11-19T06:50:45;10.50;99.90
21508;DHT22;10915;54.352;9.074;2023-11-19T06:53:11;10.50;99.90
21508;DHT22;10915;54.352;9.074;2023-11-19T06:55:37;10.50;99.90
21508;DHT22;10915;54.352;9.074;2023-11-19T06:58:02;10.50;99.90
21508;DHT22;10915;54.352;9.074;2023-11-19T07:00:29;10.50;99.90
21508;DHT22;10915;54.352;9.074;2023-11-19T07:02:55;10.50;99.90
21508;DHT22;10915;54.352;9.074;2023-11-19T07:05:20;10.40;99.90
21508;DHT22;10915;54.352;9.074;2023-11-19T07:07:46;10.40;99.90
21508;DHT22;10915;54.352;9.074;2023-11-19T07:10:12;10.50;99.90
21508;DHT22;10915;54.352;9.074;2023-11-19T07:12:38;10.50;99.90
21508;DHT22;10915;54.352;9.074;2023-11-19T07:15:04;10.50;99.90
21508;DHT22;10915;54.352;9.074;2023-11-19T07:17:31;10.50;99.90
21508;DHT22;10915;54.352;9.074;2023-11-19T07:19:56;10.50;99.90
21508;DHT22;10915;54.352;9.074;2023-11-19T07:22:25;10.60;99.90
21508;DHT22;10915;54.352;9.074;2023-11-19T07:24:51;10.50;99.90
21508;DHT22;10915;54.352;9.074;2023-11-19T07:27:18;10.50;99.90
21508;DHT22;10915;54.352;9.074;2023-11-19T07:29:44;10.50;99.90
21508;DHT22;10915;54.352;9.074;2023-11-19T07:32:10;10.50;99.90
21508;DHT22;10915;54.352;9.074;2023-11-19T07:34:36;10.50;99.90
21508;DHT22;10915;54.352;9.074;2023-11-19T07:37:02;10.50;99.90
21508;DHT22;10915;54.352;9.074;2023-11-19T07:39:28;10.50;99.90
21508;DHT22;10915;54.352;9.074;2023-11-19T07:41:54;10.50;99.90
21508;DHT22;10915;54.352;9.074;2023-11-19T07:44:20;10.50;99.90
21508;DHT22;10915;54.352;9.074;2023-11-19T07:46:47;10.60;99.90
21508;DHT22;10915;54.352;9.074;2023-11-19T07:49:13;10.60;99.90
21508;DHT22;10915;54.352;9.074;2023-11-19T07:51:39;10.60;99.90
21508;DHT22;10915;54.352;9.074;2023-11-19T07:54:05;10.60;99.90
21508;DHT22;10915;54.352;9.074;2023-11-19T07:56:32;10.70;99.90
21508;DHT22;10915;54.352;9.074;2023-11-19T07:58:59;10.70;99.90
21508;DHT22;10915;54.352;9.074;2023-11-19T08:01:25;10.70;99.90
21508;DHT22;10915;54.352;9.074;2023-11-19T08:03:50;10.70;99.90
21508;DHT22;10915;54.352;9.074;2023-11-19T08:06:16;10.70;99.90
21508;DHT22;10915;54.352;9.074;2023-11-19T08:08:42;10.80;99.90
21508;DHT22;10915;54.352;9.074;2023-11-19T08:11:08;10.80;99.90
21508;DHT22;10915;54.352;9.074;2023-11-19T08:13:33;10.80;99.90
21508;DHT22;10915;54.352;9.074;2023-11-19T08:15:59;10.90;99.90
21508;DHT22;10915;54.352;9.074;2023-11-19T08:18:25;10.90;99.90
21508;DHT22;10915;54.352;9.074;2023-11-19T08:20:50;10.90;99.90
21508;DHT22;10915;54.352;9.074;2023-11-19T08:23:19;10.90;99.90
21508;DHT22;10915;54.352;9.074;2023-11-19T08:25:44;10.90;99.90
21508;DHT22;10915;54.352;9.074;2023-11-19T08:28:10;11.00;99.90
21508;DHT22;10915;54.352;9.074;2023-11-19T08:30:36;11.00;99.90
21508;DHT22;10915;54.352;9.074;2023-11-19T08:33:01;11.10;99.90
21508;DHT22;10915;54.352;9.074;2023-11-19T08:35:31;11.10;99.90
21508;DHT22;10915;54.352;9.074;2023-11-19T08:37:57;11.20;99.90
21508;DHT22;10915;54.352;9.074;2023-11-19T08:40:24;11.20;99.90
21508;DHT22;10915;54.352;9.074;2023-11-19T08:42:51;11.30;99.90
21508;DHT22;10915;54.352;9.074;2023-11-19T08:45:17;11.40;99.90
21508;DHT22;10915;54.352;9.074;2023-11-19T08:47:42;11.50;99.90
21508;DHT22;10915;54.352;9.074;2023-11-19T08:50:08;11.50;99.90
21508;DHT22;10915;54.352;9.074;2023-11-19T08:52:34;11.50;99.90
21508;DHT22;10915;54.352;9.074;2023-11-19T08:55:00;11.50;99.90
21508;DHT22;10915;54.352;9.074;2023-11-19T08:57:25;11.40;99.90
21508;DHT22;10915;54.352;9.074;2023-11-19T08:59:51;11.40;99.90
21508;DHT22;10915;54.352;9.074;2023-11-19T09:02:17;11.40;99.90
21508;DHT22;10915;54.352;9.074;2023-11-19T09:04:43;11.40;99.90
21508;DHT22;10915;54.352;9.074;2023-11-19T09:07:09;11.50;99.90
21508;DHT22;10915;54.352;9.074;2023-11-19T09:09:35;11.50;99.90
21508;DHT22;10915;54.352;9.074;2023-11-19T09:12:02;11.50;99.90
21508;DHT22;10915;54.352;9.074;2023-11-19T09:14:28;11.60;99.90
21508;DHT22;10915;54.352;9.074;2023-11-19T09:16:54;11.60;99.90
21508;DHT22;10915;54.352;9.074;2023-11-19T09:19:19;11.60;99.90
21508;DHT22;10915;54.352;9.074;2023-11-19T09:21:46;11.50;99.90
21508;DHT22;10915;54.352;9.074;2023-11-19T09:24:13;11.60;99.90
21508;DHT22;10915;54.352;9.074;2023-11-19T09:26:38;11.60;99.90
21508;DHT22;10915;54.352;9.074;2023-11-19T09:29:07;11.60;99.90
21508;DHT22;10915;54.352;9.074;2023-11-19T09:31:33;11.70;99.90
21508;DHT22;10915;54.352;9.074;2023-11-19T09:33:58;11.70;99.90
21508;DHT22;10915;54.352;9.074;2023-11-19T09:36:24;11.90;99.90
21508;DHT22;10915;54.352;9.074;2023-11-19T09:38:49;12.00;99.90
21508;DHT22;10915;54.352;9.074;2023-11-19T09:41:15;12.00;99.90
21508;DHT22;10915;54.352;9.074;2023-11-19T09:43:41;12.00;99.90
21508;DHT22;10915;54.352;9.074;2023-11-19T09:46:09;12.00;99.90
21508;DHT22;10915;54.352;9.074;2023-11-19T09:48:37;12.10;99.90
21508;DHT22;10915;54.352;9.074;2023-11-19T09:51:04;12.10;99.90
21508;DHT22;10915;54.352;9.074;2023-11-19T09:53:30;12.10;99.90
21508;DHT22;10915;54.352;9.074;2023-11-19T09:55:59;12.20;99.90
21508;DHT22;10915;54.352;9.074;2023-11-19T09:58:26;12.30;99.90
21508;DHT22;10915;54.352;9.074;2023-11-19T10:00:51;12.40;99.90
21508;DHT22;10915;54.352;9.074;2023-11-19T10:03:17;12.40;99.90
21508;DHT22;10915;54.352;9.074;2023-11-19T10:05:43;12.30;99.90
21508;DHT22;10915;54.352;9.074;2023-11-19T10:08:09;12.40;99.90
21508;DHT22;10915;54.352;9.074;2023-11-19T10:10:36;12.30;99.90
21508;DHT22;10915;54.352;9.074;2023-11-19T10:13:02;12.30;99.90
21508;DHT22;10915;54.352;9.074;2023-11-19T10:15:28;12.30;99.90
21508;DHT22;10915;54.352;9.074;2023-11-19T10:17:57;12.30;99.90
21508;DHT22;10915;54.352;9.074;2023-11-19T10:20:22;12.20;99.90
21508;DHT22;10915;54.352;9.074;2023-11-19T10:22:48;12.10;99.90
21508;DHT22;10915;54.352;9.074;2023-11-19T10:25:24;12.10;99.90
21508;DHT22;10915;54.352;9.074;2023-11-19T10:27:53;12.10;99.90
21508;DHT22;10915;54.352;9.074;2023-11-19T10:33:17;12.10;99.90
21508;DHT22;10915;54.352;9.074;2023-11-19T10:35:56;12.10;99.90
21508;DHT22;10915;54.352;9.074;2023-11-19T10:38:25;12.20;99.90
21508;DHT22;10915;54.352;9.074;2023-11-19T10:40:52;12.20;99.90
21508;DHT22;10915;54.352;9.074;2023-11-19T10:43:21;12.30;99.90
21508;DHT22;10915;54.352;9.074;2023-11-19T10:45:51;12.30;99.90
21508;DHT22;10915;54.352;9.074;2023-11-19T10:48:17;12.40;99.90
21508;DHT22;10915;54.352;9.074;2023-11-19T10:50:44;12.40;99.90
21508;DHT22;10915;54.352;9.074;2023-11-19T10:53:12;12.50;99.90
21508;DHT22;10915;54.352;9.074;2023-11-19T10:55:41;12.50;99.90
21508;DHT22;10915;54.352;9.074;2023-11-19T10:58:12;12.60;99.90
21508;DHT22;10915;54.352;9.074;2023-11-19T11:00:57;12.70;99.90
21508;DHT22;10915;54.352;9.074;2023-11-19T11:03:35;12.70;99.90
21508;DHT22;10915;54.352;9.074;2023-11-19T11:06:05;12.70;99.90
21508;DHT22;10915;54.352;9.074;2023-11-19T11:08:31;12.70;99.90
21508;DHT22;10915;54.352;9.074;2023-11-19T11:10:57;12.70;99.90
21508;DHT22;10915;54.352;9.074;2023-11-19T11:13:24;12.60;99.90
21508;DHT22;10915;54.352;9.074;2023-11-19T11:15:51;12.60;99.90
21508;DHT22;10915;54.352;9.074;2023-11-19T11:18:17;12.60;99.90
21508;DHT22;10915;54.352;9.074;2023-11-19T11:20:45;12.60;99.90
21508;DHT22;10915;54.352;9.074;2023-11-19T11:29:10;12.60;99.90
21508;DHT22;10915;54.352;9.074;2023-11-19T11:32:08;12.50;99.90
21508;DHT22;10915;54.352;9.074;2023-11-19T11:34:53;12.40;99.90
21508;DHT22;10915;54.352;9.074;2023-11-19T11:37:46;12.40;99.90
21508;DHT22;10915;54.352;9.074;2023-11-19T11:40:17;12.30;99.90
21508;DHT22;10915;54.352;9.074;2023-11-19T11:42:48;12.30;99.90
21508;DHT22;10915;54.352;9.074;2023-11-19T11:45:17;12.40;99.90
21508;DHT22;10915;54.352;9.074;2023-11-19T11:50:18;12.40;99.90
21508;DHT22;10915;54.352;9.074;2023-11-19T11:55:25;12.40;99.90
21508;DHT22;10915;54.352;9.074;2023-11-19T11:57:50;12.40;99.90
21508;DHT22;10915;54.352;9.074;2023-11-19T12:02:55;12.50;99.90
21508;DHT22;10915;54.352;9.074;2023-11-19T12:05:22;12.60;99.90
21508;DHT22;10915;54.352;9.074;2023-11-19T12:08:07;12.60;99.90
21508;DHT22;10915;54.352;9.074;2023-11-19T12:10:57;12.50;99.90
21508;DHT22;10915;54.352;9.074;2023-11-19T12:13:24;12.40;99.90
21508;DHT22;10915;54.352;9.074;2023-11-19T12:18:23;12.40;99.90
21508;DHT22;10915;54.352;9.074;2023-11-19T12:20:49;12.30;99.90
21508;DHT22;10915;54.352;9.074;2023-11-19T12:23:15;12.40;99.90
21508;DHT22;10915;54.352;9.074;2023-11-19T12:25:41;12.50;99.90
21508;DHT22;10915;54.352;9.074;2023-11-19T12:28:12;12.60;99.90
21508;DHT22;10915;54.352;9.074;2023-11-19T12:30:38;12.70;99.90
21508;DHT22;10915;54.352;9.074;2023-11-19T12:33:08;12.80;99.90
21508;DHT22;10915;54.352;9.074;2023-11-19T12:35:41;12.70;99.90
21508;DHT22;10915;54.352;9.074;2023-11-19T12:38:07;12.60;99.90
21508;DHT22;10915;54.352;9.074;2023-11-19T12:40:33;12.50;99.90
21508;DHT22;10915;54.352;9.074;2023-11-19T12:42:59;12.50;99.90
21508;DHT22;10915;54.352;9.074;2023-11-19T12:45:34;12.50;99.90
21508;DHT22;10915;54.352;9.074;2023-11-19T12:48:07;12.40;99.90
21508;DHT22;10915;54.352;9.074;2023-11-19T12:50:52;12.40;99.90
21508;DHT22;10915;54.352;9.074;2023-11-19T12:53:19;12.40;99.90
21508;DHT22;10915;54.352;9.074;2023-11-19T12:55:45;12.40;99.90
21508;DHT22;10915;54.352;9.074;2023-11-19T12:58:10;12.40;99.90
21508;DHT22;10915;54.352;9.074;2023-11-19T13:00:36;12.30;99.90
21508;DHT22;10915;54.352;9.074;2023-11-19T13:03:01;12.30;99.90
21508;DHT22;10915;54.352;9.074;2023-11-19T13:05:28;12.20;99.90
21508;DHT22;10915;54.352;9.074;2023-11-19T13:08:08;12.20;99.90
21508;DHT22;10915;54.352;9.074;2023-11-19T13:13:15;12.20;99.90
21508;DHT22;10915;54.352;9.074;2023-11-19T13:15:41;12.10;99.90
21508;DHT22;10915;54.352;9.074;2023-11-19T13:18:06;12.10;99.90
21508;DHT22;10915;54.352;9.074;2023-11-19T13:20:32;12.10;99.90
21508;DHT22;10915;54.352;9.074;2023-11-19T13:22:59;12.00;99.90
21508;DHT22;10915;54.352;9.074;2023-11-19T13:25:26;12.00;99.90
21508;DHT22;10915;54.352;9.074;2023-11-19T13:27:52;11.90;99.90
21508;DHT22;10915;54.352;9.074;2023-11-19T13:30:18;11.80;99.90
21508;DHT22;10915;54.352;9.074;2023-11-19T13:32:44;11.70;99.90
21508;DHT22;10915;54.352;9.074;2023-11-19T13:35:12;11.60;99.90
21508;DHT22;10915;54.352;9.074;2023-11-19T13:37:38;11.50;99.90
21508;DHT22;10915;54.352;9.074;2023-11-19T13:40:04;11.50;99.90
21508;DHT22;10915;54.352;9.074;2023-11-19T13:42:30;11.50;99.90
21508;DHT22;10915;54.352;9.074;2023-11-19T13:44:55;11.50;99.90
21508;DHT22;10915;54.352;9.074;2023-11-19T13:47:21;11.50;99.90
21508;DHT22;10915;54.352;9.074;2023-11-19T13:49:47;11.50;99.90
21508;DHT22;10915;54.352;9.074;2023-11-19T13:52:13;11.60;99.90
21508;DHT22;10915;54.352;9.074;2023-11-19T13:54:38;11.60;99.90
21508;DHT22;10915;54.352;9.074;2023-11-19T13:57:04;11.60;99.90
21508;DHT22;10915;54.352;9.074;2023-11-19T13:59:31;11.60;99.90
21508;DHT22;10915;54.352;9.074;2023-11-19T14:01:58;11.60;99.90
21508;DHT22;10915;54.352;9.074;2023-11-19T14:04:23;11.60;99.90
21508;DHT22;10915;54.352;9.074;2023-11-19T14:06:49;11.60;99.90
21508;DHT22;10915;54.352;9.074;2023-11-19T14:09:15;11.70;99.90
21508;DHT22;10915;54.352;9.074;2023-11-19T14:11:40;11.70;99.90
21508;DHT22;10915;54.352;9.074;2023-11-19T14:14:07;11.70;99.90
21508;DHT22;10915;54.352;9.074;2023-11-19T14:16:33;11.70;99.90
21508;DHT22;10915;54.352;9.074;2023-11-19T14:18:59;11.70;99.90
21508;DHT22;10915;54.352;9.074;2023-11-19T14:21:25;11.70;99.90
21508;DHT22;10915;54.352;9.074;2023-11-19T14:23:52;11.70;99.90
21508;DHT22;10915;54.352;9.074;2023-11-19T14:26:18;11.70;99.90
21508;DHT22;10915;54.352;9.074;2023-11-19T14:28:44;11.70;99.90
21508;DHT22;10915;54.352;9.074;2023-11-19T14:31:09;11.70;99.90
21508;DHT22;10915;54.352;9.074;2023-11-19T14:33:35;11.60;99.90
21508;DHT22;10915;54.352;9.074;2023-11-19T14:36:02;11.60;99.90
21508;DHT22;10915;54.352;9.074;2023-11-19T14:38:28;11.50;99.90
21508;DHT22;10915;54.352;9.074;2023-11-19T14:40:53;11.50;99.90
21508;DHT22;10915;54.352;9.074;2023-11-19T14:43:20;11.50;99.90
21508;DHT22;10915;54.352;9.074;2023-11-19T14:45:46;11.50;99.90
21508;DHT22;10915;54.352;9.074;2023-11-19T14:48:11;11.40;99.90
21508;DHT22;10915;54.352;9.074;2023-11-19T14:50:37;11.40;99.90
21508;DHT22;10915;54.352;9.074;2023-11-19T14:53:02;11.40;99.90
21508;DHT22;10915;54.352;9.074;2023-11-19T14:55:28;11.30;99.90
21508;DHT22;10915;54.352;9.074;2023-11-19T14:57:54;11.30;99.90
21508;DHT22;10915;54.352;9.074;2023-11-19T15:00:20;11.30;99.90
21508;DHT22;10915;54.352;9.074;2023-11-19T15:02:46;11.20;99.90
21508;DHT22;10915;54.352;9.074;2023-11-19T15:05:12;11.10;99.90
21508;DHT22;10915;54.352;9.074;2023-11-19T15:07:38;11.10;99.90
21508;DHT22;10915;54.352;9.074;2023-11-19T15:10:06;11.10;99.90
21508;DHT22;10915;54.352;9.074;2023-11-19T15:12:40;11.10;99.90
21508;DHT22;10915;54.352;9.074;2023-11-19T15:15:10;11.10;99.90
21508;DHT22;10915;54.352;9.074;2023-11-19T15:17:38;11.10;99.90
21508;DHT22;10915;54.352;9.074;2023-11-19T15:20:05;11.00;99.90
21508;DHT22;10915;54.352;9.074;2023-11-19T15:22:30;11.00;99.90
21508;DHT22;10915;54.352;9.074;2023-11-19T15:24:56;11.00;99.90
21508;DHT22;10915;54.352;9.074;2023-11-19T15:27:22;11.00;99.90
21508;DHT22;10915;54.352;9.074;2023-11-19T15:29:48;11.00;99.90
21508;DHT22;10915;54.352;9.074;2023-11-19T15:32:14;11.00;99.90
21508;DHT22;10915;54.352;9.074;2023-11-19T15:34:39;11.00;99.90
21508;DHT22;10915;54.352;9.074;2023-11-19T15:37:07;11.00;99.90
21508;DHT22;10915;54.352;9.074;2023-11-19T15:39:33;11.00;99.90
21508;DHT22;10915;54.352;9.074;2023-11-19T15:42:02;10.90;99.90
21508;DHT22;10915;54.352;9.074;2023-11-19T15:44:27;10.90;99.90
21508;DHT22;10915;54.352;9.074;2023-11-19T15:46:54;10.90;99.90
21508;DHT22;10915;54.352;9.074;2023-11-19T15:49:20;10.90;99.90
21508;DHT22;10915;54.352;9.074;2023-11-19T15:51:45;10.80;99.90
21508;DHT22;10915;54.352;9.074;2023-11-19T15:54:11;10.80;99.90
21508;DHT22;10915;54.352;9.074;2023-11-19T15:56:37;10.80;99.90